Time;durP1;ratioP1;P1;durP2;ratioP2;P2;SDS_P1;SDS_P2;PMS_P1;PMS_P2;Temp;Humidity;BMP_temperature;BMP_pressure;BME280_temperature;BME280_humidity;BME280_pressure;Samples;Min_cycle;Max_cycle;Signal;HPM_P1;HPM_P2
2023/03/28 08:37:28;;;;;;;;;1.00;1.00;;;;;;;;5102671;27;13404;-71
2023/03/28 08:39:53;;;;;;;;;2.40;1.00;;;;;;;;5100957;28;14097;-71
2023/03/28 08:42:38;;;;;;;;;2.00;1.00;;;;;;;;5103904;28;13391;-69
2023/03/28 08:45:07;;;;;;;;;2.00;2.00;;;;;;;;5101355;28;13458;-68
2023/03/28 08:47:36;;;;;;;;;2.40;1.80;;;;;;;;5102341;28;13390;-66
2023/03/28 08:50:08;;;;;;;;;1.00;1.00;;;;;;;;5101442;28;13532;-67
2023/03/28 08:52:34;;;;;;;;;1.20;1.20;;;;;;;;5102199;28;13503;-67
2023/03/28 08:55:01;;;;;;;;;2.50;2.00;;;;;;;;5101744;28;13449;-67
2023/03/28 08:57:31;;;;;;;;;2.50;2.50;;;;;;;;5101963;28;14262;-67
2023/03/28 09:00:12;;;;;;;;;1.50;1.50;;;;;;;;5099898;28;13461;-66
2023/03/28 09:02:38;;;;;;;;;1.50;1.50;;;;;;;;5098333;28;14070;-67
2023/03/28 09:05:03;;;;;;;;;2.00;1.00;;;;;;;;5101950;28;13416;-66
2023/03/28 09:07:36;;;;;;;;;0.75;0.75;;;;;;;;5101371;28;13428;-67
2023/03/28 09:10:15;;;;;;;;;0.50;0.50;;;;;;;;5102132;28;13420;-67
2023/03/28 09:13:04;;;;;;;;;1.00;1.00;;;;;;;;5101792;28;13394;-69
2023/03/28 09:15:40;;;;;;;;;0.00;0.00;;;;;;;;5100690;28;13228;-67
2023/03/28 09:18:13;;;;;;;;;28.75;25.75;;;;;;;;5101584;28;13362;-67
2023/03/28 09:20:41;;;;;;;;;0.00;0.00;;;;;;;;5101436;28;13612;-67
2023/03/28 09:23:15;;;;;;;;;15.00;13.50;;;;;;;;5101589;28;13365;-67
2023/03/28 09:25:50;;;;;;;;;4.00;2.00;;;;;;;;5101264;28;13630;-66
2023/03/28 09:28:24;;;;;;;;;0.00;0.00;;;;;;;;5101289;28;13477;-66
2023/03/28 09:30:50;;;;;;;;;0.75;0.75;;;;;;;;5101102;28;13533;-66
2023/03/28 09:33:20;;;;;;;;;0.00;0.00;;;;;;;;5101642;28;13525;-66
2023/03/28 09:35:47;;;;;;;;;0.00;0.00;;;;;;;;5101129;28;13415;-65
2023/03/28 09:38:24;;;;;;;;;0.20;0.20;;;;;;;;5101764;28;13402;-65
2023/03/28 09:40:52;;;;;;;;;0.00;0.00;;;;;;;;5100923;28;13406;-65
2023/03/28 09:43:20;;;;;;;;;0.60;0.60;;;;;;;;5101259;28;14245;-67
2023/03/28 09:46:06;;;;;;;;;0.75;0.00;;;;;;;;5101753;28;13417;-64
2023/03/28 09:48:35;;;;;;;;;1.00;0.40;;;;;;;;5089556;28;13442;-64
2023/03/28 09:51:02;;;;;;;;;0.00;0.00;;;;;;;;5087670;28;13497;-65
2023/03/28 09:53:28;;;;;;;;;0.00;0.00;;;;;;;;5090310;28;13396;-65
2023/03/28 09:55:56;;;;;;;;;0.50;0.50;;;;;;;;5098179;28;13346;-68
2023/03/28 09:58:21;;;;;;;;;0.50;0.50;;;;;;;;5087932;28;13491;-67
2023/03/28 10:00:49;;;;;;;;;0.00;0.00;;;;;;;;5087892;28;13509;-68
2023/03/28 10:03:28;;;;;;;;;0.00;0.00;;;;;;;;5088268;28;13521;-67
2023/03/28 10:06:16;;;;;;;;;1.00;0.50;;;;;;;;5112039;27;13418;-66
2023/03/28 10:08:42;;;;;;;;;0.00;0.00;;;;;;;;5087799;28;14124;-66
2023/03/28 10:11:17;;;;;;;;;0.00;0.00;;;;;;;;5087101;28;13429;-66
2023/03/28 10:13:46;;;;;;;;;0.00;0.00;;;;;;;;5087346;28;13419;-68
2023/03/28 10:16:13;;;;;;;;;0.00;0.00;;;;;;;;5090729;28;13428;-69
2023/03/28 10:18:41;;;;;;;;;0.80;0.80;;;;;;;;5106734;28;14227;-70
2023/03/28 10:21:12;;;;;;;;;0.75;0.75;;;;;;;;5108216;28;13573;-69
2023/03/28 10:23:39;;;;;;;;;0.00;0.00;;;;;;;;5103312;28;13475;-69
2023/03/28 10:26:04;;;;;;;;;1.25;1.00;;;;;;;;5100233;28;13385;-70
2023/03/28 10:28:32;;;;;;;;;1.00;1.00;;;;;;;;5082134;28;13578;-70
2023/03/28 10:31:00;;;;;;;;;0.25;0.25;;;;;;;;5065356;28;14177;-70
2023/03/28 10:33:29;;;;;;;;;1.80;0.80;;;;;;;;5083640;28;13426;-69
2023/03/28 10:35:56;;;;;;;;;1.00;1.00;;;;;;;;5091013;28;13224;-68
2023/03/28 10:38:22;;;;;;;;;0.00;0.00;;;;;;;;5106375;28;13584;-68
2023/03/28 10:40:57;;;;;;;;;1.00;1.00;;;;;;;;5107539;28;14162;-68
2023/03/28 10:43:29;;;;;;;;;0.00;0.00;;;;;;;;5107805;28;13390;-68
2023/03/28 10:45:58;;;;;;;;;1.00;1.00;;;;;;;;5099142;28;13096;-69
2023/03/28 10:48:27;;;;;;;;;0.40;0.40;;;;;;;;5085660;28;13386;-66
2023/03/28 10:50:54;;;;;;;;;1.00;1.00;;;;;;;;5086882;28;13344;-67
2023/03/28 10:53:23;;;;;;;;;0.00;0.00;;;;;;;;5087508;28;13353;-69
2023/03/28 10:56:00;;;;;;;;;1.00;1.00;;;;;;;;5086794;28;13447;-69
2023/03/28 10:58:25;;;;;;;;;0.00;0.00;;;;;;;;5087323;28;13540;-70
2023/03/28 11:00:55;;;;;;;;;0.00;0.00;;;;;;;;5083636;28;13517;-66
2023/03/28 11:03:23;;;;;;;;;0.50;0.50;;;;;;;;5083816;28;13498;-66
2023/03/28 11:06:06;;;;;;;;;0.80;0.80;;;;;;;;5085127;28;13472;-66
2023/03/28 11:08:31;;;;;;;;;0.00;0.00;;;;;;;;5086546;28;14095;-67
2023/03/28 11:11:15;;;;;;;;;0.75;0.75;;;;;;;;5086388;28;13399;-67
2023/03/28 11:13:43;;;;;;;;;0.75;0.00;;;;;;;;5085723;28;13583;-67
2023/03/28 11:16:20;;;;;;;;;2.00;2.00;;;;;;;;5091282;28;13439;-67
2023/03/28 11:18:45;;;;;;;;;0.00;0.00;;;;;;;;5103830;28;13449;-66
2023/03/28 11:21:30;;;;;;;;;3.00;3.00;;;;;;;;5090749;28;14198;-67
2023/03/28 11:23:58;;;;;;;;;2.00;2.00;;;;;;;;5086869;28;13543;-66
2023/03/28 11:26:42;;;;;;;;;1.80;1.00;;;;;;;;5082957;28;13484;-67
2023/03/28 11:29:30;;;;;;;;;1.75;1.75;;;;;;;;5084762;28;13396;-67
2023/03/28 11:32:09;;;;;;;;;1.00;1.00;;;;;;;;5088054;28;13379;-67
2023/03/28 11:34:39;;;;;;;;;1.20;1.20;;;;;;;;5094181;28;13812;-68
2023/03/28 11:37:12;;;;;;;;;1.25;1.25;;;;;;;;5089898;28;13438;-68
2023/03/28 11:39:39;;;;;;;;;1.00;1.00;;;;;;;;5095770;28;13375;-66
2023/03/28 11:42:09;;;;;;;;;1.00;1.00;;;;;;;;5092554;28;14056;-70
2023/03/28 11:44:38;;;;;;;;;2.80;2.80;;;;;;;;5093958;28;13369;-69
2023/03/28 11:47:16;;;;;;;;;1.00;1.00;;;;;;;;5093638;28;13461;-69
2023/03/28 11:49:57;;;;;;;;;1.00;1.00;;;;;;;;5106231;28;13382;-69
2023/03/28 11:52:27;;;;;;;;;1.00;1.00;;;;;;;;5105842;28;13364;-67
2023/03/28 11:55:11;;;;;;;;;1.00;1.00;;;;;;;;5104058;28;13383;-67
2023/03/28 11:57:38;;;;;;;;;1.80;1.80;;;;;;;;5085142;28;14206;-69
2023/03/28 12:00:15;;;;;;;;;3.60;3.60;;;;;;;;5085041;28;13453;-68
2023/03/28 12:02:46;;;;;;;;;12.60;12.20;;;;;;;;5084997;28;13421;-70
2023/03/28 12:05:25;;;;;;;;;7.00;7.00;;;;;;;;5084318;28;13483;-69
2023/03/28 12:07:58;;;;;;;;;4.75;3.25;;;;;;;;5104911;28;13435;-68
2023/03/28 12:10:26;;;;;;;;;1.75;1.75;;;;;;;;5105059;28;13419;-69
2023/03/28 12:12:55;;;;;;;;;3.25;3.25;;;;;;;;5095372;28;13461;-67
2023/03/28 12:15:25;;;;;;;;;1.25;1.00;;;;;;;;5088583;28;13428;-68
2023/03/28 12:17:57;;;;;;;;;1.00;1.00;;;;;;;;5089631;28;13485;-68
2023/03/28 12:20:29;;;;;;;;;2.00;2.00;;;;;;;;5085137;28;13429;-68
2023/03/28 12:22:56;;;;;;;;;1.00;1.00;;;;;;;;5086593;28;13419;-70
2023/03/28 12:25:30;;;;;;;;;2.00;1.00;;;;;;;;5089660;28;13421;-68
2023/03/28 12:28:11;;;;;;;;;2.00;2.00;;;;;;;;5065455;28;13397;-70
2023/03/28 12:30:55;;;;;;;;;1.00;1.00;;;;;;;;5084870;28;13593;-68
2023/03/28 12:33:28;;;;;;;;;1.00;1.00;;;;;;;;5084957;28;13468;-68
2023/03/28 12:36:12;;;;;;;;;1.00;1.00;;;;;;;;5083660;28;13410;-69
2023/03/28 12:38:49;;;;;;;;;1.00;1.00;;;;;;;;5084497;28;13522;-69
2023/03/28 12:41:18;;;;;;;;;2.00;2.00;;;;;;;;5090073;28;13443;-69
2023/03/28 12:43:43;;;;;;;;;1.00;1.00;;;;;;;;5094721;28;13404;-70
2023/03/28 12:46:11;;;;;;;;;1.33;1.00;;;;;;;;5090485;28;13460;-70
2023/03/28 12:48:43;;;;;;;;;1.00;1.00;;;;;;;;5089224;28;13420;-71
2023/03/28 12:51:24;;;;;;;;;1.25;1.25;;;;;;;;5092001;28;13416;-70
2023/03/28 12:54:00;;;;;;;;;2.00;2.00;;;;;;;;5093776;28;13839;-69
2023/03/28 12:56:25;;;;;;;;;3.00;2.00;;;;;;;;5088503;28;13594;-71
2023/03/28 12:58:51;;;;;;;;;1.50;0.00;;;;;;;;5094398;28;14226;-70
2023/03/28 13:01:19;;;;;;;;;1.00;1.00;;;;;;;;5091228;28;13413;-70
2023/03/28 13:04:00;;;;;;;;;4.00;1.00;;;;;;;;5084332;28;13444;-69
2023/03/28 13:06:41;;;;;;;;;3.00;2.00;;;;;;;;5093653;28;13520;-69
2023/03/28 13:09:07;;;;;;;;;2.00;2.00;;;;;;;;5105324;28;13427;-71
2023/03/28 13:11:35;;;;;;;;;2.75;1.75;;;;;;;;5105234;28;13395;-70
2023/03/28 13:14:04;;;;;;;;;2.00;1.00;;;;;;;;5104236;28;13516;-70
2023/03/28 13:16:48;;;;;;;;;2.00;2.00;;;;;;;;5088190;28;13473;-70
2023/03/28 13:19:14;;;;;;;;;1.00;1.00;;;;;;;;5081473;28;13435;-69
2023/03/28 13:21:49;;;;;;;;;2.00;2.00;;;;;;;;5083052;28;13828;-70
2023/03/28 13:24:27;;;;;;;;;2.00;2.00;;;;;;;;5087034;28;13446;-71
2023/03/28 13:26:53;;;;;;;;;2.75;1.00;;;;;;;;5086205;28;13520;-71
2023/03/28 13:29:19;;;;;;;;;3.60;2.00;;;;;;;;5088743;28;13423;-71
2023/03/28 13:31:44;;;;;;;;;1.33;1.00;;;;;;;;5088593;28;13435;-69
2023/03/28 13:34:16;;;;;;;;;1.00;1.00;;;;;;;;5088354;28;13502;-70
2023/03/28 13:36:49;;;;;;;;;3.50;2.50;;;;;;;;5092503;28;13530;-70
2023/03/28 13:39:22;;;;;;;;;2.20;2.20;;;;;;;;5088325;28;13319;-68
2023/03/28 13:41:48;;;;;;;;;1.00;1.00;;;;;;;;5088275;28;13509;-70
2023/03/28 13:44:15;;;;;;;;;4.00;1.00;;;;;;;;5087823;28;13380;-69
2023/03/28 13:46:42;;;;;;;;;1.00;1.00;;;;;;;;5086816;28;13446;-70
2023/03/28 13:49:10;;;;;;;;;2.50;2.00;;;;;;;;5088355;28;13341;-70
2023/03/28 13:51:39;;;;;;;;;2.00;2.00;;;;;;;;5087741;28;13480;-69
2023/03/28 13:54:04;;;;;;;;;2.00;1.00;;;;;;;;5086506;28;13408;-69
2023/03/28 13:56:34;;;;;;;;;4.00;3.00;;;;;;;;5084436;28;13569;-70
2023/03/28 13:59:02;;;;;;;;;5.60;4.20;;;;;;;;5086396;28;13421;-69
2023/03/28 14:01:53;;;;;;;;;2.50;2.00;;;;;;;;5084689;28;13441;-68
2023/03/28 14:04:20;;;;;;;;;1.00;1.00;;;;;;;;5084919;28;13478;-69
2023/03/28 14:06:46;;;;;;;;;2.00;2.00;;;;;;;;5085262;28;13527;-71
2023/03/28 14:09:18;;;;;;;;;2.00;2.00;;;;;;;;5087640;28;14155;-71
2023/03/28 14:11:43;;;;;;;;;2.00;2.00;;;;;;;;5087226;28;13732;-68
2023/03/28 14:14:24;;;;;;;;;1.75;1.75;;;;;;;;5086552;28;13533;-69
2023/03/28 14:16:50;;;;;;;;;1.00;1.00;;;;;;;;5085838;28;14187;-69
2023/03/28 14:19:17;;;;;;;;;2.00;2.00;;;;;;;;5087452;28;13445;-69
2023/03/28 14:21:44;;;;;;;;;1.00;1.00;;;;;;;;5086885;28;13574;-69
2023/03/28 14:24:12;;;;;;;;;1.25;1.25;;;;;;;;5087250;28;13420;-68
2023/03/28 14:26:38;;;;;;;;;2.00;2.00;;;;;;;;5084485;28;13448;-69
2023/03/28 14:29:09;;;;;;;;;3.00;2.00;;;;;;;;5087240;28;13409;-70
2023/03/28 14:31:36;;;;;;;;;1.75;1.50;;;;;;;;5086786;28;13439;-72
2023/03/28 14:34:14;;;;;;;;;2.00;2.00;;;;;;;;5085760;28;13447;-71
2023/03/28 14:37:04;;;;;;;;;3.50;3.50;;;;;;;;5085400;28;13492;-72
2023/03/28 14:39:31;;;;;;;;;1.20;1.20;;;;;;;;5087087;28;13458;-71
2023/03/28 15:20:30;;;;;;;;;;;;;;;;;;5087930;27;13388;-67
2023/03/28 15:24:45;;;;;;;;;;;;;;;;;;5126675;27;7531;-68
2023/03/28 15:29:03;;;;;;;;;;;;;;;;;;5045950;27;9846;-68
2023/03/28 15:31:28;;;;;;;;;;;;;;;;;;5047557;28;7521;-67
2023/03/28 15:33:54;;;;;;;;;;;;;;;;;;5045382;28;7536;-67
2023/03/28 15:36:19;;;;;;;;;;;;;;;;;;5047487;28;7533;-67
2023/03/28 15:38:44;;;;;;;;;;;;;;;;;;5046219;28;10448;-67
2023/03/28 15:42:06;;;;;;;;;2.00;2.00;;;;;;;;5103025;27;13388;-68
2023/03/28 15:44:33;;;;;;;;;1.00;1.00;;;;;;;;5101501;28;13529;-69
2023/03/28 15:47:02;;;;;;;;;2.00;2.00;;;;;;;;5101363;28;13406;-69
2023/03/28 15:49:28;;;;;;;;;1.00;1.00;;;;;;;;5103030;28;14250;-68
2023/03/28 15:52:00;;;;;;;;;3.75;2.00;;;;;;;;5103454;28;13706;-69
2023/03/28 15:54:26;;;;;;;;;2.00;2.00;;;;;;;;5102143;28;13510;-69
2023/03/28 15:56:53;;;;;;;;;2.00;2.00;;;;;;;;5102834;28;13493;-69
2023/03/28 15:59:36;;;;;;;;;1.00;1.00;;;;;;;;5102631;28;13375;-70
2023/03/28 16:02:24;;;;;;;;;2.00;2.00;;;;;;;;5102822;28;13476;-69
2023/03/28 16:05:00;;;;;;;;;4.00;4.00;;;;;;;;5081196;28;13589;-69
2023/03/28 16:07:26;;;;;;;;;3.00;3.00;;;;;;;;5082326;28;13626;-68
2023/03/28 16:09:51;;;;;;;;;3.00;2.00;;;;;;;;5082883;28;13543;-69
2023/03/28 16:12:17;;;;;;;;;2.00;2.00;;;;;;;;5082308;28;14860;-68
2023/03/28 16:14:44;;;;;;;;;1.25;1.25;;;;;;;;5101171;27;13397;-69
2023/03/28 16:17:12;;;;;;;;;4.00;4.00;;;;;;;;5102548;28;13398;-70
2023/03/28 16:19:38;;;;;;;;;2.00;1.00;;;;;;;;5102507;28;13423;-70
2023/03/28 16:22:03;;;;;;;;;1.00;1.00;;;;;;;;5101288;28;13418;-70
2023/03/28 16:24:29;;;;;;;;;3.25;3.00;;;;;;;;5102636;28;13518;-70
2023/03/28 16:26:54;;;;;;;;;2.00;2.00;;;;;;;;5101998;28;13539;-69
2023/03/28 16:29:20;;;;;;;;;7.75;2.25;;;;;;;;5102749;28;13435;-71
2023/03/28 16:31:45;;;;;;;;;1.00;1.00;;;;;;;;5102468;28;14092;-69
2023/03/28 16:34:11;;;;;;;;;2.25;1.00;;;;;;;;5102431;28;13429;-70
2023/03/28 16:36:36;;;;;;;;;2.00;2.00;;;;;;;;5100605;28;13448;-68
2023/03/28 16:39:04;;;;;;;;;3.00;3.00;;;;;;;;5101676;28;13409;-69
2023/03/28 16:41:29;;;;;;;;;1.50;1.00;;;;;;;;5101976;28;13460;-69
2023/03/28 16:43:54;;;;;;;;;2.25;2.00;;;;;;;;5101991;28;14107;-68
2023/03/28 16:46:20;;;;;;;;;2.25;2.25;;;;;;;;5101813;28;13507;-68
2023/03/28 16:48:45;;;;;;;;;3.00;2.00;;;;;;;;5101898;28;13570;-69
2023/03/28 16:51:10;;;;;;;;;1.00;1.00;;;;;;;;5100158;28;13426;-67
2023/03/28 16:53:37;;;;;;;;;2.00;2.00;;;;;;;;5088433;28;14100;-68
2023/03/28 16:56:03;;;;;;;;;2.00;1.50;;;;;;;;5088073;28;13613;-69
2023/03/28 16:58:28;;;;;;;;;1.75;1.00;;;;;;;;5088219;28;13400;-71
2023/03/28 17:00:54;;;;;;;;;2.00;1.75;;;;;;;;5086647;28;13431;-68
2023/03/28 17:03:28;;;;;;;;;3.00;1.33;;;;;;;;5086978;28;13444;-67
2023/03/28 17:05:54;;;;;;;;;2.40;2.40;;;;;;;;5086913;28;13527;-67
2023/03/28 17:08:21;;;;;;;;;3.75;2.25;;;;;;;;5086585;28;13550;-68
2023/03/28 17:10:46;;;;;;;;;1.00;1.00;;;;;;;;5087269;28;13605;-69
2023/03/28 17:13:11;;;;;;;;;2.00;2.00;;;;;;;;5087184;28;13396;-71
2023/03/28 17:15:37;;;;;;;;;2.75;1.25;;;;;;;;5087270;28;13416;-69
2023/03/28 17:18:04;;;;;;;;;3.00;2.00;;;;;;;;5086031;28;13501;-72
2023/03/28 17:20:32;;;;;;;;;2.00;2.00;;;;;;;;5089442;28;14233;-66
2023/03/28 17:22:57;;;;;;;;;2.00;2.00;;;;;;;;5087955;28;13591;-73
2023/03/28 17:25:23;;;;;;;;;2.00;2.00;;;;;;;;5087390;28;13414;-70
2023/03/28 17:27:48;;;;;;;;;3.50;2.50;;;;;;;;5085411;28;13611;-72
2023/03/28 17:30:13;;;;;;;;;1.00;1.00;;;;;;;;5086365;28;13518;-74
2023/03/28 17:32:39;;;;;;;;;2.00;2.00;;;;;;;;5087270;28;14359;-73
2023/03/28 17:35:04;;;;;;;;;3.00;3.00;;;;;;;;5086253;28;13488;-72
2023/03/28 17:37:30;;;;;;;;;3.00;2.00;;;;;;;;5086929;28;14276;-72
2023/03/28 17:39:55;;;;;;;;;2.00;2.00;;;;;;;;5095142;28;14160;-72
2023/03/28 17:42:21;;;;;;;;;2.00;2.00;;;;;;;;5108346;28;13408;-73
2023/03/28 17:44:47;;;;;;;;;3.50;2.75;;;;;;;;5108313;28;13347;-73
2023/03/28 17:47:12;;;;;;;;;2.20;2.20;;;;;;;;5100686;28;13516;-73
2023/03/28 17:49:38;;;;;;;;;7.00;6.00;;;;;;;;5092967;28;13353;-71
2023/03/28 17:52:03;;;;;;;;;4.00;3.00;;;;;;;;5108393;28;13393;-73
2023/03/28 17:54:28;;;;;;;;;2.75;2.75;;;;;;;;5106846;28;13431;-73
2023/03/28 17:56:54;;;;;;;;;2.00;2.00;;;;;;;;5092830;28;14221;-73
2023/03/28 17:59:22;;;;;;;;;2.00;2.00;;;;;;;;5107493;28;13395;-71
2023/03/28 18:01:48;;;;;;;;;3.00;3.00;;;;;;;;5107807;28;14176;-73
2023/03/28 18:04:15;;;;;;;;;37.80;36.60;;;;;;;;5106802;28;13403;-75
2023/03/28 18:06:41;;;;;;;;;6.25;6.25;;;;;;;;5104439;28;13525;-69
2023/03/28 18:09:06;;;;;;;;;265.75;254.25;;;;;;;;5086533;28;13381;-77
2023/03/28 18:11:33;;;;;;;;;209.00;193.33;;;;;;;;5086711;28;13642;-75
2023/03/28 18:13:58;;;;;;;;;153.80;144.60;;;;;;;;5086523;28;13692;-78
2023/03/28 18:16:24;;;;;;;;;24.75;24.75;;;;;;;;5085121;28;13703;-73
2023/03/28 18:18:49;;;;;;;;;13.25;11.25;;;;;;;;5086108;28;13538;-75
2023/03/28 18:21:15;;;;;;;;;16.00;13.50;;;;;;;;5104485;28;13449;-69
2023/03/28 18:23:41;;;;;;;;;29.50;26.75;;;;;;;;5107164;28;13455;-73
2023/03/28 18:26:06;;;;;;;;;17.00;15.00;;;;;;;;5097551;28;14196;-73
2023/03/28 18:28:32;;;;;;;;;3.80;3.00;;;;;;;;5085543;28;14250;-76
2023/03/28 18:31:07;;;;;;;;;6.00;4.00;;;;;;;;5086524;28;13506;-74
2023/03/28 18:33:32;;;;;;;;;4.00;4.00;;;;;;;;5087147;28;13668;-75
2023/03/28 18:36:00;;;;;;;;;7.00;4.25;;;;;;;;5086857;28;14049;-72
2023/03/28 18:38:26;;;;;;;;;3.00;3.00;;;;;;;;5084271;28;13427;-72
2023/03/28 18:40:51;;;;;;;;;6.00;3.00;;;;;;;;5100093;28;13436;-70
2023/03/28 18:43:17;;;;;;;;;5.50;5.50;;;;;;;;5105594;28;14314;-78
2023/03/28 18:45:42;;;;;;;;;3.00;3.00;;;;;;;;5106839;28;14249;-76
2023/03/28 18:48:07;;;;;;;;;3.00;3.00;;;;;;;;5100560;28;13404;-76
2023/03/28 18:50:33;;;;;;;;;4.75;4.75;;;;;;;;5065842;28;14156;-74
2023/03/28 18:52:58;;;;;;;;;6.75;6.00;;;;;;;;5066294;28;13545;-73
2023/03/28 18:55:23;;;;;;;;;6.00;6.00;;;;;;;;5069403;28;14298;-73
2023/03/28 18:57:49;;;;;;;;;6.00;6.00;;;;;;;;5084100;28;13451;-72
2023/03/28 19:00:17;;;;;;;;;5.00;5.00;;;;;;;;5084895;28;13461;-71
2023/03/28 19:02:47;;;;;;;;;6.50;4.00;;;;;;;;5083500;28;13473;-73
2023/03/28 19:05:14;;;;;;;;;2.80;2.80;;;;;;;;5085853;28;13431;-74
2023/03/28 19:07:39;;;;;;;;;3.00;3.00;;;;;;;;5084833;28;13484;-73
2023/03/28 19:10:06;;;;;;;;;5.25;3.50;;;;;;;;5084663;28;13417;-74
2023/03/28 19:12:33;;;;;;;;;2.00;2.00;;;;;;;;5085597;28;13624;-72
2023/03/28 19:14:59;;;;;;;;;3.00;3.00;;;;;;;;5087844;28;13377;-74
2023/03/28 19:17:24;;;;;;;;;2.67;2.67;;;;;;;;5087435;28;13386;-75
2023/03/28 19:19:49;;;;;;;;;4.00;2.00;;;;;;;;5085362;28;13522;-73
2023/03/28 19:22:15;;;;;;;;;3.25;2.75;;;;;;;;5084722;28;13523;-79
2023/03/28 19:24:40;;;;;;;;;3.00;3.00;;;;;;;;5085055;28;13668;-74
2023/03/28 19:27:06;;;;;;;;;3.00;3.00;;;;;;;;5084968;28;13456;-77
2023/03/28 19:29:31;;;;;;;;;5.33;2.33;;;;;;;;5083070;28;13448;-76
2023/03/28 19:31:56;;;;;;;;;6.00;5.00;;;;;;;;5084549;28;14249;-75
2023/03/28 19:34:21;;;;;;;;;3.00;3.00;;;;;;;;5086546;28;14228;-80
2023/03/28 19:36:47;;;;;;;;;5.75;3.50;;;;;;;;5084017;28;13696;-77
2023/03/28 19:39:13;;;;;;;;;3.00;3.00;;;;;;;;5084400;28;13499;-77
2023/03/28 19:41:38;;;;;;;;;3.00;3.00;;;;;;;;5082371;28;13687;-73
2023/03/28 19:44:04;;;;;;;;;3.00;2.00;;;;;;;;5081558;28;14132;-73
2023/03/28 19:46:29;;;;;;;;;6.00;5.00;;;;;;;;5090670;28;13533;-72
2023/03/28 19:48:55;;;;;;;;;7.00;6.33;;;;;;;;5083599;28;14200;-71
2023/03/28 19:51:21;;;;;;;;;5.25;3.00;;;;;;;;5083871;28;13465;-72
2023/03/28 19:53:46;;;;;;;;;6.00;3.00;;;;;;;;5082453;28;13424;-79
2023/03/28 19:56:12;;;;;;;;;6.00;5.00;;;;;;;;5084852;28;13429;-79
2023/03/28 19:58:38;;;;;;;;;8.25;6.00;;;;;;;;5086993;28;13534;-75
2023/03/28 20:01:04;;;;;;;;;6.25;5.00;;;;;;;;5091800;28;14224;-81
2023/03/28 20:03:29;;;;;;;;;3.50;3.50;;;;;;;;5086317;28;14287;-74
2023/03/28 20:05:55;;;;;;;;;3.50;3.00;;;;;;;;5087661;28;13440;-73
2023/03/28 20:08:20;;;;;;;;;3.00;3.00;;;;;;;;5093388;28;13465;-81
2023/03/28 20:10:46;;;;;;;;;6.33;6.33;;;;;;;;5085862;28;13471;-78
2023/03/28 20:13:12;;;;;;;;;5.75;5.00;;;;;;;;5088176;28;13422;-76
2023/03/28 20:15:41;;;;;;;;;7.00;6.00;;;;;;;;5082437;28;13428;-75
2023/03/28 20:18:08;;;;;;;;;6.20;6.20;;;;;;;;5082761;28;13455;-77
2023/03/28 20:20:35;;;;;;;;;5.00;5.00;;;;;;;;5083035;28;13522;-77
2023/03/28 20:23:01;;;;;;;;;7.40;5.40;;;;;;;;5084810;28;13469;-77
2023/03/28 20:25:26;;;;;;;;;5.00;5.00;;;;;;;;5084741;28;13422;-77
2023/03/28 20:27:51;;;;;;;;;5.00;5.00;;;;;;;;5088891;28;13531;-77
2023/03/28 20:30:16;;;;;;;;;5.75;5.75;;;;;;;;5091753;28;13462;-75
2023/03/28 20:32:42;;;;;;;;;10.00;6.00;;;;;;;;5091766;28;13435;-76
2023/03/28 20:35:07;;;;;;;;;7.00;7.00;;;;;;;;5088645;28;14235;-81
2023/03/28 20:37:33;;;;;;;;;9.00;7.00;;;;;;;;5087061;28;13518;-75
2023/03/28 20:40:09;;;;;;;;;9.00;9.00;;;;;;;;5091079;28;13552;-79
2023/03/28 20:42:34;;;;;;;;;11.00;11.00;;;;;;;;5095076;28;13449;-79
2023/03/28 20:44:59;;;;;;;;;9.67;6.33;;;;;;;;5097888;28;13450;-79
2023/03/28 20:47:27;;;;;;;;;7.00;7.00;;;;;;;;5096532;28;13612;-79
2023/03/28 20:49:57;;;;;;;;;7.00;6.00;;;;;;;;5048999;27;13535;-82
2023/03/28 20:52:23;;;;;;;;;14.25;11.25;;;;;;;;4981949;28;13536;-78
2023/03/28 20:54:49;;;;;;;;;9.25;7.00;;;;;;;;5038822;28;13542;-79
2023/03/28 20:57:15;;;;;;;;;7.40;7.00;;;;;;;;5060351;28;13410;-78
2023/03/28 20:59:40;;;;;;;;;7.75;7.00;;;;;;;;5056359;28;13468;-76
2023/03/28 21:02:06;;;;;;;;;6.00;5.00;;;;;;;;5055488;28;13506;-78
2023/03/28 21:04:32;;;;;;;;;9.80;7.00;;;;;;;;5054633;28;13534;-77
2023/03/28 21:07:00;;;;;;;;;7.50;7.50;;;;;;;;5072267;28;13478;-77
2023/03/28 21:09:25;;;;;;;;;6.00;6.00;;;;;;;;5057180;28;14195;-76
2023/03/28 21:11:51;;;;;;;;;11.00;7.00;;;;;;;;5055419;28;13456;-77
2023/03/28 21:14:17;;;;;;;;;8.75;8.25;;;;;;;;5055741;28;13475;-78
2023/03/28 21:16:42;;;;;;;;;8.50;6.75;;;;;;;;5057340;28;13401;-76
2023/03/28 21:19:08;;;;;;;;;10.00;6.50;;;;;;;;5064475;28;13429;-78
2023/03/28 21:21:33;;;;;;;;;11.00;7.00;;;;;;;;5066278;28;13679;-78
2023/03/28 21:23:58;;;;;;;;;6.00;6.00;;;;;;;;5067587;28;13469;-77
2023/03/28 21:26:24;;;;;;;;;9.50;6.25;;;;;;;;5055917;28;13441;-78
2023/03/28 21:28:51;;;;;;;;;7.00;7.00;;;;;;;;5047450;28;13723;-78
2023/03/28 21:31:23;;;;;;;;;9.00;7.00;;;;;;;;5047369;28;14247;-78
2023/03/28 21:33:49;;;;;;;;;7.00;7.00;;;;;;;;5047802;28;13454;-75
2023/03/28 21:36:15;;;;;;;;;11.75;6.25;;;;;;;;5046588;28;13459;-75
2023/03/28 21:38:41;;;;;;;;;10.00;7.40;;;;;;;;5045055;28;13568;-75
2023/03/28 21:41:07;;;;;;;;;8.33;7.67;;;;;;;;5041204;28;14381;-75
2023/03/28 21:43:32;;;;;;;;;9.80;7.80;;;;;;;;5042497;28;13502;-74
2023/03/28 21:45:58;;;;;;;;;8.50;6.75;;;;;;;;5042668;28;13453;-75
2023/03/28 21:48:23;;;;;;;;;9.33;7.00;;;;;;;;5046209;28;13497;-74
2023/03/28 21:50:52;;;;;;;;;6.75;6.75;;;;;;;;5044511;28;13696;-73
2023/03/28 21:53:18;;;;;;;;;7.00;6.25;;;;;;;;5073203;22;13915;-72
2023/03/28 21:55:43;;;;;;;;;8.25;7.00;;;;;;;;5005385;28;13597;-74
2023/03/28 21:58:08;;;;;;;;;7.00;7.00;;;;;;;;5005483;28;13432;-73
2023/03/28 22:00:34;;;;;;;;;7.50;7.50;;;;;;;;5005017;28;13438;-73
2023/03/28 22:02:59;;;;;;;;;9.00;6.00;;;;;;;;5005804;28;13426;-73
2023/03/28 22:05:25;;;;;;;;;10.33;7.00;;;;;;;;5004195;28;13474;-73
2023/03/28 22:07:50;;;;;;;;;6.67;6.67;;;;;;;;5005094;28;13425;-76
2023/03/28 22:10:16;;;;;;;;;6.00;6.00;;;;;;;;5004712;28;14148;-74
2023/03/28 22:12:43;;;;;;;;;5.00;5.00;;;;;;;;5004910;28;13522;-74
2023/03/28 22:15:12;;;;;;;;;6.00;6.00;;;;;;;;5004954;28;13626;-75
2023/03/28 22:17:39;;;;;;;;;6.75;6.75;;;;;;;;5004902;28;13414;-74
2023/03/28 22:20:06;;;;;;;;;5.00;5.00;;;;;;;;5004757;28;13400;-74
2023/03/28 22:22:34;;;;;;;;;5.00;5.00;;;;;;;;5005733;28;13420;-73
2023/03/28 22:24:59;;;;;;;;;7.00;5.25;;;;;;;;5006950;28;14203;-74
2023/03/28 22:27:25;;;;;;;;;6.75;6.00;;;;;;;;4987265;28;13449;-74
2023/03/28 22:29:51;;;;;;;;;4.50;4.50;;;;;;;;4986917;28;13437;-74
2023/03/28 22:32:16;;;;;;;;;9.00;7.00;;;;;;;;4987199;28;13499;-74
2023/03/28 22:34:42;;;;;;;;;5.00;5.00;;;;;;;;4987034;28;13520;-74
2023/03/28 22:37:07;;;;;;;;;9.00;7.00;;;;;;;;4987401;28;13709;-74
2023/03/28 22:39:33;;;;;;;;;5.25;5.25;;;;;;;;4987233;28;14297;-75
2023/03/28 22:41:58;;;;;;;;;8.33;6.33;;;;;;;;4986497;28;13598;-75
2023/03/28 22:44:26;;;;;;;;;7.00;6.00;;;;;;;;4986877;28;13394;-74
2023/03/28 22:46:51;;;;;;;;;6.25;6.25;;;;;;;;4987271;28;13534;-74
2023/03/28 22:49:21;;;;;;;;;7.00;7.00;;;;;;;;4986352;28;14317;-74
2023/03/28 22:51:47;;;;;;;;;13.00;9.00;;;;;;;;4986868;28;13439;-74
2023/03/28 22:54:14;;;;;;;;;10.25;7.00;;;;;;;;4987084;28;13495;-74
2023/03/28 22:56:40;;;;;;;;;7.00;7.00;;;;;;;;5012021;28;13424;-74
2023/03/28 22:59:06;;;;;;;;;10.00;9.00;;;;;;;;5025359;28;13437;-74
2023/03/28 23:01:32;;;;;;;;;7.67;7.00;;;;;;;;5040938;28;13454;-74
2023/03/28 23:03:57;;;;;;;;;6.50;3.00;;;;;;;;5025810;28;13388;-74
2023/03/28 23:06:23;;;;;;;;;6.00;4.50;;;;;;;;5025675;28;13508;-74
2023/03/28 23:08:48;;;;;;;;;5.33;5.33;;;;;;;;5025888;28;13427;-76
2023/03/28 23:11:13;;;;;;;;;5.00;5.00;;;;;;;;5025647;28;13411;-73
2023/03/28 23:13:38;;;;;;;;;6.67;6.67;;;;;;;;5026040;28;13512;-75
2023/03/28 23:16:04;;;;;;;;;3.50;3.50;;;;;;;;5025392;28;13532;-73
2023/03/28 23:18:30;;;;;;;;;3.00;3.00;;;;;;;;5023829;28;13399;-73
2023/03/28 23:20:55;;;;;;;;;5.00;5.00;;;;;;;;5025573;28;13464;-73
2023/03/28 23:23:21;;;;;;;;;5.00;3.67;;;;;;;;5025818;28;13683;-74
2023/03/28 23:25:46;;;;;;;;;5.60;3.00;;;;;;;;5025509;28;13411;-73
2023/03/28 23:28:12;;;;;;;;;5.00;5.00;;;;;;;;5025546;28;13521;-74
2023/03/28 23:30:37;;;;;;;;;5.33;5.33;;;;;;;;5025422;28;14217;-73
2023/03/28 23:33:03;;;;;;;;;9.00;6.25;;;;;;;;5025470;28;13511;-74
2023/03/28 23:35:28;;;;;;;;;5.00;4.00;;;;;;;;5023996;28;13395;-75
2023/03/28 23:37:53;;;;;;;;;6.00;4.00;;;;;;;;5025036;28;14005;-73
2023/03/28 23:40:19;;;;;;;;;5.00;5.00;;;;;;;;5025410;28;13444;-74
2023/03/28 23:42:45;;;;;;;;;6.00;4.20;;;;;;;;5025449;28;13420;-73
2023/03/28 23:45:11;;;;;;;;;5.00;2.50;;;;;;;;5025254;28;13397;-73
2023/03/28 23:47:36;;;;;;;;;6.00;6.00;;;;;;;;5023892;28;14318;-73
2023/03/28 23:50:01;;;;;;;;;4.75;4.75;;;;;;;;5025389;28;13418;-74
2023/03/28 23:52:27;;;;;;;;;5.00;5.00;;;;;;;;5025494;28;13403;-74
2023/03/28 23:54:52;;;;;;;;;5.50;5.50;;;;;;;;5024650;28;13529;-74
2023/03/28 23:57:17;;;;;;;;;5.33;5.33;;;;;;;;5025175;28;13498;-74
2023/03/28 23:59:43;;;;;;;;;4.33;4.33;;;;;;;;5025195;28;13391;-74
